Date,TemperatureHighF,TemperatureAvgF,TemperatureLowF,DewpointHighF,DewpointAvgF,DewpointLowF,HumidityHigh,HumidityAvg,HumidityLow,PressureMaxIn,PressureMinIn,WindSpeedMaxMPH,WindSpeedAvgMPH,GustSpeedMaxMPH,PrecipitationSumIn
2013-1-1,45.3,42.5,39.2,45.3,40.8,24.0,100,94,54,30.18,30.04,18,3,31,0.00
2013-1-2,41.6,35.2,31.1,41.6,35.2,31.1,100,100,100,30.16,30.02,10,0,18,0.00
2013-1-3,34.3,30.3,26.1,34.3,30.3,26.1,100,100,100,30.31,30.12,11,0,14,0.00
2013-1-4,32.8,27.1,23.9,27.3,25.2,22.9,100,93,76,30.37,30.28,14,1,20,0.00
2013-1-5,43.5,34.7,23.5,33.8,24.4,13.4,93,68,45,30.39,30.26,11,1,15,0.00
2013-1-6,41.4,35.9,31.9,40.8,35.7,31.9,100,99,89,30.28,30.13,16,2,23,0.00
2013-1-7,44.3,35.1,26.2,33.3,29.1,22.3,100,80,54,30.41,30.26,11,1,19,0.00
2013-1-8,49.8,40.4,30.8,44.5,33.7,22.5,100,77,59,30.46,30.33,15,3,19,0.00
2013-1-9,53.4,49.6,44.4,53.4,49.6,44.4,100,100,100,30.62,30.43,15,3,22,0.00
2013-1-10,59.9,52.9,49.0,57.8,52.4,49.0,100,98,90,30.62,30.40,17,2,23,0.00
2013-1-11,58.0,54.4,49.4,58.0,54.4,49.4,100,100,100,30.41,30.26,19,6,30,0.00
2013-1-12,66.2,58.9,55.6,62.3,56.6,47.9,100,93,66,30.38,30.25,16,4,22,0.00
2013-1-13,61.8,57.6,54.9,58.4,55.7,53.5,100,93,84,30.29,30.17,29,9,42,0.00
2013-1-14,56.0,51.1,42.4,56.0,51.1,42.4,100,100,100,30.34,30.21,9,0,14,0.00
2013-1-15,54.4,52.0,45.3,54.4,52.0,45.3,100,100,100,30.26,30.10,12,1,20,0.00
2013-1-16,55.1,51.6,48.2,55.1,51.6,48.2,100,100,100,30.16,30.05,11,1,17,0.00
2013-1-17,48.9,36.9,25.8,48.9,36.9,25.8,100,100,100,30.28,29.89,16,3,21,0.00
2013-1-18,37.4,28.9,22.9,37.1,28.9,22.9,100,100,96,30.52,30.28,9,1,11,0.00
2013-1-19,45.3,36.3,30.6,31.6,27.4,24.1,98,72,48,30.46,30.23,14,5,17,0.00
2013-1-20,44.8,38.5,35.3,37.6,32.3,23.5,94,79,57,30.23,30.16,21,4,33,0.00
2013-1-21,39.1,33.4,22.4,32.6,27.3,18.9,91,78,61,30.17,30.05,24,7,36,0.00
2013-1-22,25.9,19.3,14.0,19.0,11.8,7.2,90,73,50,30.18,30.03,23,9,39,0.00
2013-1-23,38.0,28.1,19.9,33.5,23.7,12.3,92,83,73,30.26,30.09,26,7,35,0.00
2013-1-24,36.5,27.2,20.8,34.8,21.8,12.3,100,81,55,30.34,30.05,39,8,48,0.00
2013-1-25,37.9,30.7,22.4,37.9,28.6,14.5,100,92,69,30.31,30.04,28,6,35,0.00
2013-1-26,41.4,33.7,28.1,34.3,28.1,20.9,100,82,53,30.36,30.14,12,1,20,0.00
2013-1-27,47.2,38.3,32.0,37.6,30.3,19.3,98,73,52,30.46,30.35,10,1,14,0.00
2013-1-28,52.8,45.9,38.2,49.9,44.6,36.6,100,95,88,30.45,30.35,26,8,38,0.00
2013-1-29,61.0,52.7,46.0,56.0,50.9,44.6,100,94,80,30.38,30.13,16,4,26,0.00
2013-1-30,58.7,52.4,35.2,58.7,52.4,35.2,100,100,100,30.13,29.57,35,9,45,0.00
2013-1-31,35.2,28.1,23.2,35.1,26.5,23.2,100,94,84,30.01,29.65,39,12,41,0.00
2013-2-1,33.6,21.4,14.5,31.4,18.9,12.4,100,91,71,30.28,29.92,27,7,40,0.00
2013-2-2,33.9,27.4,17.0,31.4,24.8,12.0,100,90,70,30.27,30.02,17,2,32,0.00
2013-2-3,33.1,28.0,22.6,33.1,27.8,22.6,100,99,95,30.08,29.92,26,10,41,0.00
2013-2-4,43.9,34.0,21.6,34.0,27.9,19.9,100,79,63,30.11,30.01,18,4,22,0.00
2013-2-5,46.9,40.0,35.9,41.6,34.5,28.1,100,81,67,30.09,29.97,20,3,26,0.00
2013-2-6,49.4,41.1,34.7,39.8,33.1,28.3,100,76,46,30.30,30.08,20,3,24,0.00
2013-2-7,45.8,41.0,38.2,42.4,35.9,28.7,100,83,58,30.29,30.03,12,1,15,0.00
2013-2-8,41.6,37.6,27.8,41.4,37.6,27.8,100,100,95,30.23,29.97,21,3,28,0.00
2013-2-9,47.4,35.7,25.4,27.8,24.4,19.0,100,68,39,30.37,30.20,12,2,15,0.00
2013-2-10,48.5,42.7,39.6,46.7,29.9,20.1,100,64,40,30.39,30.16,22,3,39,0.00
2013-2-11,49.9,46.9,41.2,49.9,43.5,25.3,100,89,53,30.19,30.13,25,5,28,0.00
2013-2-12,46.0,39.3,33.8,38.0,31.9,25.5,100,75,53,30.22,29.95,11,2,17,0.00
2013-2-13,44.7,37.7,29.9,44.7,37.7,29.9,100,100,98,29.95,29.70,26,5,32,0.00
2013-2-14,44.9,35.0,28.3,37.1,32.1,28.3,100,90,70,30.11,29.95,14,3,20,0.00
2013-2-15,45.5,36.8,28.8,39.8,34.6,28.8,100,92,70,30.14,30.04,17,1,25,0.00
2013-2-16,28.9,24.6,16.0,28.9,24.3,16.0,100,99,90,30.05,29.87,19,3,34,0.00
2013-2-17,28.5,20.0,14.0,20.9,16.6,13.3,100,87,70,30.22,29.95,23,7,35,0.00
2013-2-18,47.0,34.3,23.7,36.6,28.0,17.4,89,78,60,30.32,30.10,16,2,26,0.00
2013-2-19,41.3,35.4,26.9,41.3,31.3,20.5,100,86,61,30.12,29.95,28,10,43,0.00
2013-2-20,38.9,29.2,23.1,21.0,14.8,7.7,81,57,34,30.18,30.07,21,4,38,0.00
2013-2-21,51.1,39.6,27.3,37.0,16.6,1.7,99,42,21,30.23,30.13,15,2,18,0.00
2013-2-22,47.5,41.8,36.7,47.5,41.8,36.7,100,100,100,30.24,30.10,15,1,25,0.00
2013-2-23,50.2,45.9,41.7,50.2,45.9,41.7,100,100,98,30.12,29.95,11,1,18,0.00
2013-2-24,47.7,39.4,34.2,41.7,33.6,27.1,100,82,46,30.14,29.96,15,3,25,0.00
2013-2-25,47.4,38.9,34.3,38.5,31.8,21.2,100,76,54,30.13,29.97,22,2,27,0.00
2013-2-26,48.5,40.9,35.7,48.1,40.6,35.7,100,99,90,29.97,29.56,34,10,56,0.00
2013-3-6,23.6,23.3,22.8,23.6,23.3,22.8,100,100,100,30.17,30.10,8,1,13,0.00
2013-3-7,33.2,26.2,22.5,33.2,26.2,22.5,100,100,100,30.31,30.15,5,0,8,0.00
2013-3-8,41.8,31.6,21.3,32.6,25.6,17.3,100,80,48,30.39,30.26,9,0,9,0.00
2013-3-9,54.4,44.7,34.7,35.0,26.3,14.6,62,49,41,30.38,30.31,11,1,14,0.00
2013-3-10,60.2,50.2,43.5,40.6,35.1,31.1,71,57,45,30.33,30.23,13,1,21,0.00
2013-3-11,54.2,48.7,46.2,51.5,47.4,38.3,100,95,72,30.23,29.92,28,7,38,0.00
2013-3-12,47.5,40.2,33.7,47.5,38.8,33.7,100,95,75,30.12,29.91,17,2,28,0.00
2013-3-13,35.9,31.5,23.7,34.3,28.7,21.8,100,89,69,30.21,30.07,27,9,37,0.00
2013-3-14,40.2,27.9,18.6,23.1,20.0,17.5,97,75,46,30.30,30.20,16,3,23,0.00
2013-3-15,57.8,44.8,30.4,45.5,37.0,19.5,100,76,43,30.24,30.08,23,7,32,0.00
2013-3-16,65.5,55.4,48.6,50.1,46.9,44.8,87,74,51,30.07,29.97,20,9,31,0.00
2013-3-18,56.0,48.9,44.6,52.7,48.3,44.6,100,98,87,30.10,29.93,19,4,29,0.00
2013-3-19,47.1,41.1,34.0,45.5,33.7,19.0,100,78,48,30.17,29.97,22,4,35,0.00
2013-3-20,44.4,35.2,25.7,30.3,19.6,14.3,100,54,38,30.16,29.90,23,5,32,0.00
2013-3-21,31.8,23.5,16.7,25.7,19.4,15.4,100,85,65,29.94,29.80,22,5,26,0.00
2013-3-22,41.1,30.9,19.8,33.5,22.4,14.5,89,72,49,30.07,29.94,8,0,12,0.00
2013-3-23,47.6,40.5,35.7,47.6,39.8,33.5,100,98,89,30.07,29.90,10,2,14,0.00
2013-3-24,51.2,42.9,38.1,50.7,42.9,38.1,100,100,97,29.96,29.52,19,3,28,0.00
2013-3-25,38.1,27.0,22.6,38.1,26.7,22.6,100,98,92,29.90,29.58,36,10,65,0.00
2013-3-26,30.9,25.1,21.8,30.9,25.1,21.8,100,100,99,30.21,29.90,20,4,26,0.00
2013-3-27,38.9,29.0,22.7,31.9,26.7,22.7,100,92,71,30.30,30.18,15,2,23,0.00
2013-3-28,42.8,33.0,25.2,30.8,26.8,24.5,98,80,54,30.36,30.26,17,2,21,0.00
2013-3-29,44.6,36.2,30.0,38.6,31.0,25.7,100,83,52,30.39,30.31,11,0,20,0.00
2013-3-30,54.0,44.1,36.8,46.5,41.0,36.8,100,90,63,30.31,30.16,11,1,15,0.00
2013-3-31,52.9,47.8,44.4,52.3,47.6,43.6,100,99,87,30.16,29.99,11,2,16,0.00
2013-4-1,51.4,45.6,41.2,47.2,43.0,38.0,100,91,81,30.13,30.00,17,5,28,0.00
2013-4-2,47.8,38.6,31.9,38.2,29.4,24.4,95,72,43,30.25,30.10,22,4,23,0.00
2013-4-3,49.2,39.2,30.5,30.5,25.2,19.9,66,57,46,30.33,30.22,12,4,16,0.00
2013-4-4,42.3,36.3,31.3,36.6,32.2,25.3,100,87,55,30.31,30.01,12,1,18,0.00
2013-4-5,50.6,40.9,35.1,46.2,39.0,35.1,100,94,73,30.22,30.00,13,1,16,0.00
2013-4-6,60.8,49.3,40.3,41.0,37.7,35.7,87,66,46,30.33,30.22,16,3,21,0.00
2013-4-7,64.6,53.3,45.4,46.5,41.7,37.1,82,66,43,30.34,30.25,16,5,23,0.00
2013-4-8,70.0,58.8,50.7,54.1,50.3,46.4,94,75,49,30.32,30.24,17,6,25,0.00
2013-4-9,75.6,63.2,55.0,56.8,54.4,50.2,96,75,42,30.40,30.30,14,4,23,0.00
2013-4-10,75.1,64.9,57.3,58.9,56.3,53.4,94,75,49,30.34,30.16,15,4,20,0.00
2013-4-11,71.8,62.8,58.1,60.8,56.7,51.1,100,82,50,30.18,29.90,15,6,30,0.00
2013-4-12,60.2,55.3,46.3,58.7,51.8,41.0,100,89,62,30.06,29.80,20,5,30,0.00
2013-4-13,63.0,52.0,42.6,43.4,39.2,30.2,94,65,36,30.22,30.05,25,4,30,0.00
2013-4-14,64.8,53.8,48.0,48.0,40.6,35.5,100,62,43,30.23,30.10,14,3,24,0.00
2013-4-15,64.2,55.2,47.5,60.2,54.1,47.5,100,96,81,30.34,30.09,16,5,22,0.00
2013-4-16,69.0,60.7,52.8,61.6,57.6,52.8,100,90,67,30.46,30.34,16,5,21,0.00
2013-4-17,66.2,61.0,56.8,64.4,59.9,56.8,100,96,81,30.47,30.32,22,4,33,0.00
2013-4-18,68.7,62.9,57.9,61.8,58.2,55.4,100,86,63,30.32,30.11,15,4,23,0.00
2013-4-19,61.8,55.7,37.9,61.8,55.0,36.8,100,97,91,30.10,29.92,28,8,34,0.00
2013-4-20,51.8,41.1,32.3,36.7,33.8,30.3,98,77,50,30.39,30.08,20,3,31,0.00
2013-4-21,53.8,45.7,40.3,40.4,34.6,30.5,90,66,51,30.51,30.38,17,3,25,0.00
2013-4-22,57.2,47.5,38.2,47.0,41.0,38.0,100,80,57,30.48,30.31,18,4,21,0.00
2013-4-23,68.5,52.5,40.6,48.5,41.2,32.8,80,66,44,30.36,30.23,15,2,17,0.00
2013-4-24,65.2,54.5,44.8,57.0,50.9,44.8,100,88,66,30.28,30.16,22,8,30,0.00
2013-4-25,59.4,47.1,37.9,48.2,38.4,29.1,100,76,35,30.47,30.27,12,2,17,0.00
2013-4-26,63.7,50.5,41.5,45.4,37.3,31.7,91,62,40,30.53,30.43,15,4,21,0.00
2013-4-27,50.0,48.0,46.0,48.9,47.0,44.5,100,97,82,30.52,30.33,15,2,24,0.00
2013-4-28,51.3,48.5,45.8,51.3,48.5,45.8,100,100,100,30.33,30.10,13,4,23,0.00
2013-4-29,62.4,54.0,48.0,59.1,52.9,48.0,100,96,78,30.18,30.12,13,4,17,0.00
2013-4-30,67.3,57.8,52.0,58.5,55.0,52.0,100,91,60,30.33,30.15,15,2,20,0.00
2013-5-1,61.4,55.3,50.5,57.0,54.1,50.5,100,96,82,30.43,30.32,16,4,24,0.00
2013-5-2,59.1,53.0,50.2,57.1,52.8,50.2,100,99,93,30.43,30.36,15,2,17,0.00
2013-5-3,57.6,50.3,47.9,54.2,49.9,47.9,100,99,86,30.37,30.16,32,6,43,0.00
2013-5-4,47.8,44.0,41.4,47.8,44.0,40.5,100,100,96,30.17,30.03,33,13,42,0.00
2013-5-5,47.3,44.6,42.4,47.3,44.6,42.4,100,100,100,30.07,29.91,43,16,48,0.00
2013-5-6,60.9,50.3,46.1,50.4,47.6,45.6,100,92,60,30.03,29.89,19,4,26,0.00
2013-5-7,62.2,50.3,43.7,51.8,48.2,43.7,100,93,63,30.11,29.99,13,1,18,0.00
2013-5-8,58.9,52.5,49.1,58.5,52.5,49.1,100,100,98,30.24,30.07,18,2,23,0.00
2013-5-9,71.1,59.2,51.1,60.7,55.1,51.1,100,88,56,30.32,30.20,14,2,22,0.00
2013-5-10,69.0,60.7,56.3,63.5,58.2,55.3,100,92,66,30.33,30.18,22,1,26,0.00
2013-5-11,64.4,57.9,51.1,63.6,57.8,51.1,100,100,95,30.20,30.07,23,2,23,0.00
2013-5-12,57.2,49.2,43.7,51.0,43.7,33.9,100,83,52,30.23,30.08,17,3,23,0.00
2013-5-13,56.6,46.6,38.7,38.8,35.5,32.7,84,66,48,30.32,30.20,13,2,24,0.00
2013-5-14,73.0,55.8,42.2,53.5,43.7,34.7,81,65,44,30.38,30.27,12,1,18,0.00
2013-5-15,76.8,65.3,55.4,57.6,54.4,50.5,95,71,42,30.37,30.26,19,2,28,0.00
2013-5-16,72.6,64.7,59.0,61.8,56.5,53.4,89,75,55,30.31,30.24,16,0,18,0.00
2013-5-17,71.9,64.5,59.8,67.1,60.6,53.0,100,88,70,30.35,30.26,9,1,14,0.00
2013-5-18,67.2,62.2,59.2,65.5,61.3,56.8,100,97,83,30.33,30.26,9,1,15,0.00
2013-5-19,71.7,63.1,59.5,68.5,62.8,59.5,100,99,88,30.33,30.24,16,1,25,0.02
2013-5-20,76.7,66.3,59.0,69.1,64.2,59.0,100,93,77,30.37,30.28,7,0,12,0.00
2013-5-21,75.9,67.2,61.9,68.8,63.7,59.0,100,89,67,30.33,30.21,8,0,16,0.00
2013-5-22,75.8,65.7,60.1,68.3,63.5,60.1,100,93,70,30.26,30.13,24,2,24,0.00
2013-5-23,71.8,62.8,55.7,62.0,59.5,55.5,100,90,60,30.20,30.12,24,3,28,0.00
2013-5-24,60.4,53.7,48.0,55.4,49.2,42.5,100,86,58,30.41,30.17,16,3,24,0.00
2013-5-25,67.3,54.5,43.7,49.2,43.3,39.5,92,69,38,30.49,30.38,9,1,15,0.00
2013-5-26,69.3,59.0,50.9,53.7,48.8,37.1,92,70,50,30.47,30.37,10,0,21,0.00
2013-5-27,72.7,63.1,54.8,63.2,57.5,51.4,91,82,70,30.45,30.37,9,1,15,0.00
2013-5-28,78.1,66.9,60.0,64.7,59.7,55.5,98,80,48,30.46,30.35,14,2,20,0.00
2013-5-29,75.3,66.2,59.2,65.5,60.8,57.3,99,84,62,30.49,30.39,13,2,18,0.00
2013-5-30,74.6,66.1,59.5,65.9,61.8,58.7,100,87,72,30.52,30.41,10,2,15,0.00
2013-5-31,78.1,67.8,61.4,64.9,62.2,59.3,100,84,56,30.47,30.37,10,2,20,0.00
2013-6-1,78.3,68.9,63.1,65.7,62.8,57.2,100,83,51,30.38,30.27,17,4,21,0.00
2013-6-2,66.8,63.5,61.3,66.8,63.5,61.3,100,100,100,30.29,30.15,16,1,32,0.00
2013-6-3,71.0,63.3,59.8,65.9,62.4,59.8,100,97,81,30.22,30.14,17,2,20,0.00
2013-6-12,81.5,76.3,69.7,75.3,71.8,68.0,98,86,67,30.36,30.26,10,2,20,0.00
2013-6-13,78.8,68.3,63.0,71.0,66.2,62.8,100,94,71,30.25,30.04,14,3,29,0.01
2013-6-14,69.6,62.2,56.5,62.6,59.2,56.5,100,90,73,30.32,30.11,14,2,18,0.00
2013-6-15,77.0,65.7,57.1,64.8,60.6,56.3,98,84,63,30.39,30.30,12,1,12,0.00
2013-6-16,74.8,67.3,61.1,69.4,65.1,61.1,100,93,75,30.41,30.31,8,0,10,0.00
2013-6-17,74.1,67.7,64.2,71.5,67.3,64.2,100,99,87,30.33,30.23,7,0,10,0.00
2013-6-18,69.3,64.3,60.3,69.3,64.3,60.3,100,100,99,30.23,30.10,16,2,21,0.00
2013-6-19,72.9,64.8,58.9,67.0,62.9,58.9,100,94,78,30.39,30.19,10,2,12,0.00
2013-6-20,71.5,65.3,60.0,68.5,63.8,58.6,100,95,86,30.50,30.37,10,1,14,0.00
2013-6-21,74.1,66.8,61.5,67.9,63.7,60.4,100,90,69,30.53,30.46,10,2,16,0.00
2013-6-22,76.1,67.1,60.7,65.5,61.3,55.1,100,83,53,30.51,30.41,13,2,15,0.00
2013-6-23,72.1,66.7,62.3,69.3,64.7,60.5,100,94,77,30.50,30.41,9,2,15,0.00
2013-6-24,76.4,68.7,62.7,72.4,67.4,62.7,100,96,80,30.52,30.41,10,1,12,0.00
2013-6-25,77.1,69.3,64.0,71.2,67.7,64.0,100,95,80,30.45,30.33,10,0,13,0.00
2013-6-26,78.9,70.0,64.4,73.6,68.5,64.4,100,95,82,30.35,30.22,12,1,16,0.00
2013-6-27,79.4,68.8,61.8,74.2,68.0,61.8,100,97,81,30.26,30.10,13,3,26,0.00
2013-6-28,77.9,69.3,63.9,70.2,67.2,63.9,100,93,72,30.14,29.95,16,4,23,0.00
2013-6-29,75.6,67.1,61.6,65.5,62.8,60.1,100,87,62,30.01,29.93,10,1,14,0.00
2013-6-30,77.0,66.8,61.6,67.0,63.5,60.2,100,90,63,30.08,29.97,10,1,14,0.00
2013-7-1,74.6,65.3,61.0,68.8,64.4,60.9,100,97,77,30.21,30.05,14,2,16,0.00
2013-7-2,78.7,67.6,61.7,70.1,65.4,61.7,100,93,69,30.39,30.19,11,2,17,0.00
2013-7-3,67.9,63.8,59.5,67.9,63.7,59.4,100,100,98,30.48,30.36,8,1,14,0.00
2013-7-4,68.9,63.8,60.4,68.9,63.8,60.4,100,100,100,30.47,30.47,10,3,17,0.00
2013-7-5,74.8,66.7,62.5,71.7,65.9,62.5,100,97,83,30.47,30.47,9,2,15,0.00
2013-7-6,74.3,67.4,63.0,71.5,66.9,63.0,100,98,89,30.47,30.47,9,2,14,0.00
2013-7-7,72.8,67.2,64.8,71.6,67.2,64.8,100,100,95,30.47,30.47,11,2,12,0.00
2013-7-8,75.9,68.5,63.7,72.4,67.5,63.6,100,97,82,30.47,30.47,10,2,13,0.00
2013-7-9,76.6,70.0,65.1,73.5,69.1,65.1,100,97,86,30.47,30.47,9,1,17,0.00
2013-7-10,76.8,69.8,65.3,75.6,69.5,65.3,100,99,94,30.47,30.47,9,1,16,0.00
2013-7-11,74.5,68.9,65.2,72.4,68.5,65.2,100,99,91,0.00,0.00,8,0,12,0.00
2013-7-12,73.8,67.9,62.6,70.3,67.1,62.6,100,97,87,0.00,0.00,12,2,14,0.01
2013-7-13,69.7,64.0,59.9,68.3,63.8,59.9,100,99,94,0.00,0.00,11,3,17,0.00
2013-7-14,65.2,65.0,64.8,65.2,65.0,64.8,100,100,100,0.00,0.00,10,4,18,0.00
2013-7-19,77.7,72.0,64.8,74.6,70.9,64.8,100,96,90,0.00,0.00,19,1,27,0.01
2013-7-20,74.3,69.5,65.8,74.0,69.2,65.8,100,99,95,0.00,0.00,6,0,8,0.00
2013-7-21,73.1,68.3,65.7,72.8,68.2,65.7,100,100,96,0.00,0.00,8,0,14,0.00
2013-7-22,76.3,68.7,64.0,72.2,67.6,64.0,100,97,83,0.00,0.00,12,2,19,0.00
2013-7-23,78.1,68.2,63.4,73.6,67.0,63.4,100,96,81,0.00,0.00,14,2,21,0.00
2013-7-24,76.4,69.4,65.7,72.2,68.5,65.7,100,97,84,0.00,0.00,10,2,14,0.00
2013-7-25,74.4,67.2,62.6,70.7,65.8,62.6,100,95,79,0.00,0.00,8,1,16,0.00
2013-7-26,77.3,67.1,60.7,70.6,65.0,60.7,100,93,67,0.00,0.00,11,1,14,0.00
2013-7-27,74.1,67.6,64.1,70.5,66.8,64.1,100,97,82,0.00,0.00,12,1,13,0.00
2013-7-28,72.6,66.9,62.9,69.0,65.4,62.3,100,95,84,0.00,0.00,15,2,16,0.00
2013-7-29,72.0,64.5,59.4,65.8,61.7,57.5,100,91,72,0.00,0.00,7,1,11,0.00
2013-7-30,73.0,66.0,59.6,68.0,61.5,56.3,100,86,61,0.00,0.00,7,0,9,0.00
2013-7-31,70.3,65.6,61.1,69.6,65.0,59.9,100,98,78,0.00,0.00,10,1,16,0.00
2013-8-1,73.3,67.4,64.0,71.1,66.8,64.0,100,98,86,0.00,0.00,10,1,13,0.00
2013-8-2,76.1,67.4,62.8,71.3,66.4,62.8,100,97,76,0.00,0.00,11,2,13,0.00
2013-8-3,74.2,68.1,63.8,70.2,66.4,63.8,100,94,79,0.00,0.00,14,1,16,0.00
2013-8-4,73.2,67.6,62.6,69.7,66.2,62.2,100,95,83,0.00,0.00,16,2,18,0.00
2013-8-5,77.4,67.1,60.7,70.0,64.5,60.7,100,92,67,0.00,0.00,12,1,14,0.00
2013-8-6,75.8,68.1,62.0,72.4,66.8,62.0,100,96,86,0.00,0.00,8,1,10,0.00
2013-8-7,73.7,68.0,65.7,72.1,67.9,65.7,100,100,94,0.00,0.00,8,1,11,0.00
2013-8-8,77.3,69.0,64.7,74.5,68.8,64.7,100,99,91,0.00,0.00,12,2,13,0.00
2013-8-9,79.5,69.8,65.8,75.9,69.5,65.8,100,99,89,0.00,0.00,10,1,14,0.00
2013-8-10,74.5,68.8,65.9,74.5,68.8,65.9,100,100,100,0.00,0.00,9,1,13,0.00
2013-8-11,75.5,69.1,65.3,74.4,69.0,65.3,100,99,93,0.00,0.00,10,0,13,0.00
2013-8-12,76.7,69.0,66.0,74.0,68.7,66.0,100,99,90,0.00,0.00,8,0,14,0.00
2013-8-13,74.7,68.1,65.4,71.9,67.6,65.4,100,98,88,0.00,0.00,16,2,23,0.00
2013-8-14,65.4,61.3,57.5,65.4,61.1,57.5,100,99,94,0.00,0.00,11,3,13,0.00
2013-8-15,65.8,60.3,57.4,64.3,60.0,57.4,100,99,94,0.00,0.00,10,2,13,0.00
2013-8-16,67.0,60.7,56.0,63.6,59.5,55.9,100,96,85,0.00,0.00,13,2,13,0.00
2013-8-17,65.8,60.3,57.0,65.2,60.1,56.3,100,99,92,0.00,0.00,9,1,14,0.00
2013-8-18,69.3,62.8,59.1,68.9,62.8,59.1,100,100,99,0.00,0.00,8,1,10,0.00
2013-8-19,69.5,63.3,61.0,69.5,63.3,61.0,100,100,100,0.00,0.00,11,1,13,0.00
2013-8-20,69.8,65.5,61.5,69.8,65.5,61.5,100,100,100,0.00,0.00,9,1,12,0.00
2013-8-21,70.9,66.7,62.9,70.9,66.7,62.9,100,100,100,0.00,0.00,8,1,12,0.00
2013-8-22,75.1,68.4,62.7,72.5,67.5,62.7,100,97,87,0.00,0.00,9,1,13,0.00
2013-8-23,73.5,67.1,63.9,71.0,66.9,63.9,100,99,90,0.00,0.00,8,1,13,0.00
2013-8-24,70.8,65.4,60.8,67.4,64.0,59.3,100,96,84,0.00,0.00,10,2,14,0.00
2013-8-25,69.5,62.7,57.9,63.8,59.6,56.2,98,90,72,0.00,0.00,11,2,16,0.00
2013-8-26,70.6,64.0,58.3,65.9,62.4,58.3,100,95,83,0.00,0.00,11,1,14,0.00
2013-8-27,71.8,67.0,62.9,70.7,66.4,62.9,100,98,94,0.00,0.00,9,2,12,0.00
2013-8-28,76.3,69.5,65.6,73.1,68.7,65.6,100,97,84,0.00,0.00,11,2,19,0.00
2013-8-29,78.0,70.9,67.7,74.6,70.3,67.7,100,98,87,0.00,0.00,12,2,21,0.00
2013-8-30,76.0,70.2,65.7,74.0,69.5,65.7,100,98,89,0.00,0.00,11,2,12,0.00
2013-8-31,78.7,70.3,65.6,75.9,69.9,65.6,100,99,89,0.00,0.00,7,0,10,0.00
2013-9-1,74.4,68.2,64.8,72.9,68.0,64.8,100,99,94,0.00,0.00,14,2,23,0.00
2013-9-2,75.2,68.2,63.2,72.7,67.6,63.2,100,98,91,0.00,0.00,9,1,16,0.00
2013-9-3,74.0,66.3,58.0,70.2,65.3,58.0,100,97,83,0.00,0.00,29,3,38,0.00
2013-9-4,73.4,66.0,60.9,70.6,65.3,60.9,100,98,81,0.00,0.00,9,1,12,0.00
2013-9-5,71.3,65.9,62.0,69.5,63.0,46.3,100,91,50,0.00,0.00,9,2,11,0.00
2013-9-6,72.7,65.0,59.5,69.1,63.2,55.5,100,94,76,0.00,0.00,11,2,12,0.00
2013-9-7,73.1,66.1,60.4,67.5,64.0,60.4,100,93,74,0.00,0.00,9,1,14,0.00
2013-9-8,74.0,67.5,63.6,69.8,66.5,63.6,100,97,84,0.00,0.00,10,1,17,0.00
2013-9-9,74.5,67.7,64.1,70.8,66.9,64.1,100,97,87,0.00,0.00,10,1,13,0.00
2013-9-10,74.6,68.2,62.6,71.2,66.8,62.6,100,96,81,0.00,0.00,10,1,13,0.00
2013-9-11,73.3,68.5,64.9,71.4,68.0,64.9,100,98,93,0.00,0.00,7,0,8,0.00
2013-9-12,72.0,67.2,62.4,71.5,67.0,62.4,100,100,95,0.00,0.00,18,1,29,0.00
2013-9-13,66.8,61.9,53.7,63.5,60.1,52.9,100,94,71,0.00,0.00,14,1,16,0.00
2013-9-14,64.8,56.2,48.7,62.2,55.6,48.7,100,98,91,0.00,0.00,14,2,15,0.00
2013-9-15,70.7,60.8,54.8,65.5,59.4,54.8,100,95,79,0.00,0.00,10,1,14,0.00
2013-9-16,68.2,62.3,58.9,64.6,61.0,58.9,100,96,79,0.00,0.00,11,2,16,0.00
2013-9-17,65.3,60.1,56.1,63.8,59.7,56.1,100,99,95,0.00,0.00,10,2,13,0.00
2013-9-18,62.9,58.7,54.3,62.4,58.6,54.3,100,100,96,0.00,0.00,7,1,10,0.00
2013-9-19,69.9,63.1,58.4,68.0,62.9,58.4,100,99,92,0.00,0.00,6,1,12,0.00
2013-9-20,70.5,64.7,60.1,69.0,64.4,60.1,100,99,95,0.00,0.00,10,2,15,0.00
2013-9-21,63.2,60.7,57.2,63.2,60.7,57.2,100,100,100,0.00,0.00,12,3,24,0.00
2013-9-22,61.2,55.7,49.9,59.4,55.3,49.9,100,98,93,0.00,0.00,12,3,13,0.00
2013-9-23,65.4,57.7,52.4,63.6,57.3,52.4,100,99,93,0.00,0.00,8,2,12,0.00
2013-9-24,66.5,59.5,53.2,65.1,59.3,53.2,100,99,95,0.00,0.00,9,2,11,0.00
2013-9-25,60.7,58.4,56.1,60.7,58.4,56.1,100,100,100,0.00,0.00,10,2,14,0.00
2013-9-26,63.1,58.6,56.3,62.7,58.5,56.3,100,100,93,0.00,0.00,8,2,13,0.00
2013-9-27,64.6,58.4,52.8,61.1,56.9,52.8,100,95,72,0.00,0.00,12,2,12,0.00
2013-9-28,64.0,56.7,52.1,60.6,56.1,52.1,100,98,86,0.00,0.00,10,2,14,0.00
2013-9-29,61.4,55.6,51.4,59.8,55.2,51.3,100,99,87,0.00,0.00,12,2,13,0.00
2013-9-30,62.8,57.3,53.8,61.1,57.0,53.8,100,99,94,0.00,0.00,8,1,10,0.00
2013-10-1,66.8,59.2,54.5,64.1,58.9,54.5,100,99,87,0.00,0.00,9,1,11,0.00
2013-10-2,66.8,61.0,56.4,63.8,60.1,56.4,100,97,85,0.00,0.00,10,2,13,0.00
2013-10-3,67.8,62.2,58.5,66.3,61.9,58.5,100,99,94,0.00,0.00,9,1,11,0.00
2013-10-4,69.2,62.9,59.0,66.9,62.5,58.9,100,98,91,0.00,0.00,6,1,9,0.00
2013-10-5,71.6,65.0,60.7,68.1,64.0,60.7,100,97,86,0.00,0.00,8,1,11,0.00
2013-10-6,71.4,63.8,60.0,65.8,62.3,60.0,100,95,78,0.00,0.00,16,4,22,0.00
2013-10-7,62.3,55.2,49.9,62.3,55.1,49.5,100,100,97,0.00,0.00,11,2,14,0.00
2013-10-8,61.3,52.2,46.7,58.6,50.9,46.7,100,95,78,0.00,0.00,11,2,14,0.00
2013-10-9,62.0,53.3,48.3,60.0,52.3,46.9,100,97,92,0.00,0.00,12,2,14,0.00
2013-10-15,61.5,60.8,59.5,60.6,60.1,59.2,99,98,96,0.00,40.00,8,6,9,0.00
2013-10-16,63.9,61.5,59.5,61.4,60.4,54.3,100,96,91,0.00,0.00,9,2,11,0.00
2013-10-17,64.6,58.7,56.3,64.6,58.7,56.3,100,100,100,0.00,0.00,18,4,19,0.00
2013-10-18,57.8,51.1,45.9,55.5,50.5,45.9,100,98,91,0.00,0.00,12,2,19,0.00
2013-10-19,56.9,52.8,49.6,53.6,50.9,49.6,100,94,79,0.00,0.00,13,2,20,0.00
2013-10-20,54.1,45.3,38.4,46.5,42.4,38.3,100,90,69,0.00,0.00,15,3,21,0.00
2013-10-21,60.1,49.2,42.9,49.8,45.4,40.9,100,89,50,0.00,0.00,13,2,16,0.00
2013-10-22,59.6,52.7,49.2,54.3,50.5,48.5,100,92,80,0.00,0.00,11,1,15,0.00
2013-10-23,48.2,43.2,37.0,48.2,42.2,35.4,100,96,91,0.00,0.00,40,7,40,0.00
2013-10-24,43.7,37.3,32.7,40.6,35.9,32.2,100,95,85,0.00,0.00,18,3,26,0.00
2013-10-25,38.2,32.7,27.2,36.7,31.1,27.1,100,94,78,0.00,0.00,16,2,21,0.00
2013-10-26,51.4,36.6,29.3,37.1,31.3,28.2,98,83,53,0.00,0.00,11,2,13,0.00
2013-10-27,55.2,47.5,43.2,52.5,46.8,42.9,100,97,90,0.00,0.00,25,4,29,0.00
2013-10-28,56.2,50.4,47.7,55.0,50.3,47.7,100,100,94,0.00,0.00,13,1,14,0.00
2013-10-29,60.5,52.5,48.3,54.1,50.7,48.3,100,94,74,0.00,0.00,10,1,12,0.00
2013-10-30,63.7,56.8,52.0,59.2,55.0,50.7,100,94,84,0.00,0.00,12,2,14,0.00
2013-10-31,59.5,57.1,55.6,57.5,56.0,54.8,100,96,90,0.00,0.00,24,7,34,0.00
2013-11-1,64.3,58.9,53.8,59.7,56.5,53.4,100,93,72,0.00,0.00,25,5,52,0.00
2013-11-2,50.9,47.1,40.9,47.3,45.2,40.8,100,93,79,29.99,0.00,22,4,28,0.00
2013-11-3,41.5,41.4,41.4,41.5,41.4,41.4,100,100,100,29.98,29.98,0,0,4,0.00
2013-11-4,50.1,42.9,38.3,40.7,37.7,35.9,93,82,66,30.37,30.25,12,2,13,0.00
2013-11-5,55.2,44.7,37.2,40.0,35.2,27.2,93,71,46,30.40,30.33,11,2,12,0.00
2013-11-6,62.6,54.1,48.4,56.8,52.5,46.0,100,94,80,30.34,30.10,22,4,23,0.00
2013-11-7,53.5,45.7,34.1,53.3,45.4,33.5,100,99,94,30.12,30.01,19,4,20,0.00
2013-11-8,44.5,36.2,30.9,33.4,28.5,23.5,98,76,50,30.23,30.12,16,3,20,0.00
2013-11-9,44.6,37.6,35.6,29.9,27.5,26.0,71,67,56,30.21,30.16,8,3,9,0.00
2013-11-10,54.8,46.8,40.9,41.0,33.2,20.7,81,60,36,30.24,30.16,19,4,20,2.03
2013-11-11,48.4,41.9,40.3,31.4,29.5,28.5,64,61,52,30.22,30.12,0,0,12,0.00
2013-11-12,48.5,35.4,18.4,39.9,28.6,18.2,100,80,46,30.28,30.04,19,4,29,0.00
2013-11-13,31.9,24.4,16.5,24.8,20.6,16.4,100,86,61,30.38,30.27,18,4,21,0.00
2013-11-14,47.4,38.8,30.0,27.0,21.6,16.5,70,50,42,30.31,30.18,10,2,10,0.00
2013-11-15,47.9,44.0,38.2,47.1,38.3,15.8,100,84,36,30.20,30.08,18,4,20,0.00
2013-11-16,59.2,51.4,47.1,57.3,51.1,47.1,100,99,91,30.19,30.11,18,4,23,0.00
2013-11-17,59.3,55.5,50.8,58.9,55.4,50.8,100,100,97,30.14,29.88,22,7,36,0.00
2013-11-18,58.1,48.8,38.3,58.1,44.8,35.3,100,87,63,30.02,29.87,22,5,38,0.00
2013-11-19,42.8,36.1,31.2,35.6,30.0,23.5,94,80,47,30.08,29.99,14,4,18,15.38
2013-11-20,38.4,36.7,35.1,30.6,30.0,29.0,83,77,69,30.09,30.00,12,5,20,0.02
2013-11-22,59.3,55.6,51.4,59.0,55.5,51.3,100,100,98,30.24,30.14,15,6,44,0.00
2013-11-23,51.4,40.7,26.2,51.3,40.6,24.5,100,99,94,30.16,30.08,18,4,22,0.75
2013-11-24,25.9,20.5,17.0,24.6,16.7,8.3,99,87,52,30.25,30.10,14,2,151,0.00
2013-11-25,39.3,31.4,22.0,39.3,24.0,10.3,100,75,54,30.22,30.05,9,3,17,0.02
2013-11-26,141.2,42.1,37.2,42.9,33.9,-11.3,100,90,4,30.05,29.58,14,3,239,10.00
2013-11-27,37.6,24.6,16.5,37.5,24.6,16.5,100,100,100,29.99,29.56,15,0,215,6.67
2013-11-28,39.6,28.0,15.3,34.2,23.9,15.3,100,86,56,30.29,29.98,10,0,18,0.00
2013-11-29,41.2,35.6,28.8,32.8,26.1,-32.7,81,69,44,30.67,30.28,12,2,21,0.00
2013-11-30,45.4,36.3,29.0,35.8,30.4,27.1,93,80,60,30.38,30.18,8,2,207,0.03
2013-12-1,46.4,40.2,35.7,41.4,38.1,28.5,100,92,74,30.18,29.90,14,4,17,0.00
2013-12-2,47.9,42.2,37.9,46.1,41.5,33.2,100,97,93,29.91,29.71,12,1,42,6.40
2013-12-3,42.9,42.5,42.3,42.8,42.5,42.3,100,100,100,29.76,29.75,6,2,9,0.00
2013-12-5,62.5,59.8,58.0,60.4,59.2,58.0,100,98,92,30.06,30.00,17,5,22,0.00
2013-12-6,63.0,58.8,49.7,62.1,58.6,49.7,100,99,95,30.06,29.94,24,7,35,0.00
2013-12-7,52.1,39.0,34.3,52.1,39.0,34.3,100,100,100,30.23,30.02,9,2,11,0.00
2013-12-8,51.4,44.4,36.9,51.3,44.4,36.8,100,100,100,30.20,30.02,24,3,62,0.08
2013-12-9,52.9,48.9,43.0,52.4,17.8,0.0,100,34,100,30.05,29.91,26,4,159,0.00
2013-12-10,44.7,34.4,25.0,26.6,5.7,0.0,100,23,100,30.16,29.84,24,4,31,0.00
2013-12-11,38.5,30.3,24.1,33.1,11.7,0.0,100,45,100,30.25,30.13,23,3,29,0.00
2013-12-12,31.4,26.0,21.8,30.5,22.8,0.0,100,89,100,30.24,30.15,14,2,17,0.00
2013-12-13,39.1,32.2,24.3,29.6,9.9,0.0,100,37,100,30.18,30.05,11,2,11,0.00
2013-12-14,45.9,41.3,36.0,0.0,0.0,0.0,0,0,100,30.05,29.67,22,6,26,0.00
2013-12-15,44.7,31.2,25.6,29.2,9.2,0.0,100,34,100,29.96,29.66,18,5,27,0.00
2013-12-16,42.9,34.6,29.1,29.6,2.0,0.0,100,7,100,30.05,29.94,18,3,22,0.00
2013-12-17,46.1,38.4,29.6,0.0,0.0,0.0,0,0,100,30.03,29.86,30,5,44,0.00
2013-12-18,37.7,30.7,23.8,27.1,6.8,0.0,100,27,100,30.15,29.96,22,4,29,0.00
2013-12-19,51.9,45.1,35.3,51.9,13.7,0.0,100,23,44,30.21,30.09,16,6,22,0.00
2013-12-20,56.0,48.4,42.5,53.2,38.8,24.4,100,72,46,30.13,30.05,24,7,27,0.00
2013-12-21,60.5,56.2,49.8,60.5,56.2,49.8,100,100,100,30.07,29.90,30,9,39,0.00
2013-12-22,60.7,54.6,50.5,60.6,54.6,50.3,100,100,100,30.07,29.90,28,6,46,0.00
2013-12-23,50.7,42.7,32.5,50.6,42.7,32.4,100,100,100,30.11,29.97,16,2,21,0.00
2013-12-24,32.5,24.9,18.8,32.4,24.9,18.8,100,100,100,30.20,30.08,17,2,20,0.00
2013-12-25,34.6,28.2,20.0,28.8,22.0,13.1,100,78,61,30.22,30.12,11,1,12,0.00
2013-12-26,38.8,31.6,28.3,31.9,28.4,24.9,100,88,71,30.20,30.11,14,1,17,0.00
2013-12-27,42.6,34.8,28.8,31.5,28.5,24.2,100,79,60,30.30,30.16,7,0,7,0.00
2013-12-28,48.2,40.5,34.9,42.3,29.8,19.3,100,69,38,30.27,29.90,16,2,26,0.00
2013-12-29,47.2,41.0,35.9,47.2,41.0,35.8,100,100,100,29.91,29.71,23,4,28,0.00
2013-12-30,38.2,34.5,29.6,38.2,34.5,29.6,100,100,100,30.01,29.88,21,3,26,0.00
2013-12-31,33.6,30.1,26.9,30.7,24.5,16.4,100,81,55,30.20,29.98,23,3,30,0.00
2014-1-1,42.5,35.6,30.1,26.6,21.4,17.6,68,56,44,30.19,29.95,14,5,17,0.00
2014-1-2,43.4,34.7,13.3,43.4,34.0,13.3,100,97,69,29.95,29.57,30,7,41,0.00